Time,TemperatureF,DewpointF,PressureIn,WindDirection,WindDirectionDegrees,WindSpeedMPH,WindSpeedGustMPH,Humidity,HourlyPrecipIn,Conditions,Clouds,dailyrainin,SoftwareType,DateUTC
2013-07-03 00:06:00,69.8,56.0,30.09,ENE,72,0.0,0.0,62,0.00,,,0.00,weatherlink.com 1.10,2013-07-03 05:06:00,
2013-07-03 00:21:00,70.5,57.0,30.08,East,82,0.0,0.0,63,0.00,,,0.00,weatherlink.com 1.10,2013-07-03 05:21:00,
2013-07-03 00:36:00,68.9,57.0,30.08,East,90,0.0,0.0,66,0.00,,,0.00,weatherlink.com 1.10,2013-07-03 05:36:00,
2013-07-03 00:51:00,68.4,57.0,30.08,East,91,0.0,0.0,67,0.00,,,0.00,weatherlink.com 1.10,2013-07-03 05:51:00,
2013-07-03 01:06:00,67.4,57.0,30.08,East,89,0.0,0.0,69,0.00,,,0.00,weatherlink.com 1.10,2013-07-03 06:06:00,
2013-07-03 01:21:00,66.4,57.0,30.08,East,89,0.0,0.0,71,0.00,,,0.00,weatherlink.com 1.10,2013-07-03 06:21:00,
2013-07-03 01:36:00,65.9,56.0,30.07,East,89,0.0,0.0,71,0.00,,,0.00,weatherlink.com 1.10,2013-07-03 06:36:00,
2013-07-03 01:51:00,65.2,56.0,30.07,East,89,0.0,0.0,73,0.00,,,0.00,weatherlink.com 1.10,2013-07-03 06:51:00,
2013-07-03 02:06:00,64.8,56.0,30.07,East,91,0.0,0.0,73,0.00,,,0.00,weatherlink.com 1.10,2013-07-03 07:06:00,
2013-07-03 02:51:00,65.9,57.0,30.07,East,89,0.0,0.0,72,0.00,,,0.00,weatherlink.com 1.10,2013-07-03 07:51:00,
2013-07-03 03:06:00,65.4,56.0,30.07,East,91,0.0,0.0,72,0.00,,,0.00,weatherlink.com 1.10,2013-07-03 08:06:00,
2013-07-03 03:21:00,64.4,56.0,30.07,East,91,0.0,0.0,74,0.00,,,0.00,weatherlink.com 1.10,2013-07-03 08:21:00,
2013-07-03 03:37:00,64.1,56.0,30.07,East,89,0.0,0.0,76,0.00,,,0.00,weatherlink.com 1.10,2013-07-03 08:37:00,
2013-07-03 03:52:00,64.3,56.0,30.07,East,89,0.0,0.0,75,0.00,,,0.00,weatherlink.com 1.10,2013-07-03 08:52:00,
2013-07-03 04:07:00,64.3,56.0,30.06,East,89,0.0,0.0,74,0.00,,,0.00,weatherlink.com 1.10,2013-07-03 09:07:00,
2013-07-03 04:37:00,63.7,56.0,30.06,East,91,0.0,0.0,76,0.00,,,0.00,weatherlink.com 1.10,2013-07-03 09:37:00,
2013-07-03 05:07:00,63.4,56.0,30.07,East,90,0.0,0.0,77,0.00,,,0.00,weatherlink.com 1.10,2013-07-03 10:07:00,
2013-07-03 05:22:00,62.4,55.0,30.07,East,90,0.0,0.0,78,0.00,,,0.00,weatherlink.com 1.10,2013-07-03 10:22:00,
2013-07-03 05:37:00,62.1,56.0,30.07,East,91,0.0,0.0,79,0.00,,,0.00,weatherlink.com 1.10,2013-07-03 10:37:00,
2013-07-03 06:07:00,61.8,56.0,30.07,East,91,0.0,0.0,82,0.00,,,0.00,weatherlink.com 1.10,2013-07-03 11:07:00,
2013-07-03 06:22:00,63.7,58.0,30.07,SSE,163,0.0,1.0,81,0.00,,,0.00,weatherlink.com 1.10,2013-07-03 11:22:00,
2013-07-03 06:52:00,66.9,58.0,30.07,SSE,167,0.0,1.0,74,0.00,,,0.00,weatherlink.com 1.10,2013-07-03 11:52:00,
2013-07-03 07:07:00,67.9,59.0,30.07,South,169,0.0,1.0,72,0.00,,,0.00,weatherlink.com 1.10,2013-07-03 12:07:00,
2013-07-03 07:22:00,68.1,59.0,30.06,SSW,213,1.0,1.0,73,0.00,,,0.00,weatherlink.com 1.10,2013-07-03 12:22:00,
2013-07-03 07:37:00,69.7,60.0,30.06,SSW,204,0.0,1.0,71,0.00,,,0.00,weatherlink.com 1.10,2013-07-03 12:37:00,
2013-07-03 08:07:00,71.8,60.0,30.07,SSW,198,0.0,2.0,66,0.00,,,0.00,weatherlink.com 1.10,2013-07-03 13:07:00,
2013-07-03 08:22:00,73.5,60.0,30.07,SSE,166,0.0,2.0,63,0.00,,,0.00,weatherlink.com 1.10,2013-07-03 13:22:00,
2013-07-03 08:37:00,73.5,61.0,30.07,SSE,163,0.0,1.0,64,0.00,,,0.00,weatherlink.com 1.10,2013-07-03 13:37:00,
2013-07-03 08:52:00,74.0,61.0,30.07,SSW,212,0.0,1.0,63,0.00,,,0.00,weatherlink.com 1.10,2013-07-03 13:52:00,
2013-07-03 09:07:00,75.0,61.0,30.07,SSE,165,0.0,1.0,62,0.00,,,0.00,weatherlink.com 1.10,2013-07-03 14:07:00,
2013-07-03 09:22:00,77.2,61.0,30.06,SSW,200,1.0,1.0,58,0.00,,,0.00,weatherlink.com 1.10,2013-07-03 14:22:00,
2013-07-03 09:52:00,80.2,61.0,30.06,SSE,165,1.0,2.0,52,0.00,,,0.00,weatherlink.com 1.10,2013-07-03 14:52:00,
2013-07-03 10:07:00,80.6,60.0,30.05,SE,135,0.0,2.0,49,0.00,,,0.00,weatherlink.com 1.10,2013-07-03 15:07:00,
2013-07-03 10:22:00,81.8,59.0,30.05,SSE,167,1.0,3.0,46,0.00,,,0.00,weatherlink.com 1.10,2013-07-03 15:22:00,
2013-07-03 10:37:00,82.1,60.0,30.05,SE,128,0.0,2.0,47,0.00,,,0.00,weatherlink.com 1.10,2013-07-03 15:37:00,
2013-07-03 10:52:00,82.7,59.0,30.04,SSW,194,0.0,3.0,44,0.00,,,0.00,weatherlink.com 1.10,2013-07-03 15:52:00,
2013-07-03 11:08:00,84.1,59.0,30.04,ESE,112,0.0,3.0,43,0.00,,,0.00,weatherlink.com 1.10,2013-07-03 16:08:00,
2013-07-03 11:23:00,85.0,57.0,30.04,SSE,165,0.0,3.0,39,0.00,,,0.00,weatherlink.com 1.10,2013-07-03 16:23:00,
2013-07-03 11:38:00,85.7,59.0,30.03,SE,125,0.0,2.0,40,0.00,,,0.00,weatherlink.com 1.10,2013-07-03 16:38:00,
2013-07-03 11:53:00,86.8,58.0,30.03,SE,126,0.0,2.0,38,0.00,,,0.00,weatherlink.com 1.10,2013-07-03 16:53:00,
2013-07-03 12:23:00,87.1,54.0,30.02,SSW,197,1.0,3.0,32,0.00,,,0.00,weatherlink.com 1.10,2013-07-03 17:23:00,
2013-07-03 12:38:00,87.8,58.0,30.02,ESE,107,0.0,2.0,37,0.00,,,0.00,weatherlink.com 1.10,2013-07-03 17:38:00,
2013-07-03 12:53:00,88.6,56.0,30.01,East,96,1.0,3.0,33,0.00,,,0.00,weatherlink.com 1.10,2013-07-03 17:53:00,
2013-07-03 13:23:00,88.4,54.0,30.00,NNE,26,0.0,2.0,31,0.00,,,0.00,weatherlink.com 1.10,2013-07-03 18:23:00,
2013-07-03 13:53:00,87.8,55.0,30.00,South,186,1.0,3.0,33,0.00,,,0.00,weatherlink.com 1.10,2013-07-03 18:53:00,
2013-07-03 14:08:00,88.1,54.0,30.00,SW,231,1.0,3.0,31,0.00,,,0.00,weatherlink.com 1.10,2013-07-03 19:08:00,
2013-07-03 14:23:00,87.5,53.0,29.99,SW,226,0.0,2.0,31,0.00,,,0.00,weatherlink.com 1.10,2013-07-03 19:23:00,
2013-07-03 14:38:00,87.2,52.0,29.99,SSE,163,0.0,3.0,30,0.00,,,0.00,weatherlink.com 1.10,2013-07-03 19:38:00,
2013-07-03 14:53:00,88.0,54.0,29.99,SSW,205,0.0,4.0,31,0.00,,,0.00,weatherlink.com 1.10,2013-07-03 19:53:00,
2013-07-03 15:08:00,87.9,55.0,29.99,SE,146,3.0,3.0,33,0.00,,,0.00,weatherlink.com 1.10,2013-07-03 20:08:00,
2013-07-03 15:23:00,86.8,54.0,29.98,SSW,203,1.0,3.0,33,0.00,,,0.00,weatherlink.com 1.10,2013-07-03 20:23:00,
2013-07-03 15:38:00,85.4,53.0,29.98,South,184,2.0,4.0,33,0.00,,,0.00,weatherlink.com 1.10,2013-07-03 20:38:00,
2013-07-03 15:53:00,85.5,55.0,29.98,ESE,120,0.0,2.0,35,0.00,,,0.00,weatherlink.com 1.10,2013-07-03 20:53:00,
2013-07-03 16:08:00,86.4,55.0,29.98,SSW,194,1.0,3.0,34,0.00,,,0.00,weatherlink.com 1.10,2013-07-03 21:08:00,
2013-07-03 16:23:00,85.4,53.0,29.98,SSE,158,0.0,1.0,33,0.00,,,0.00,weatherlink.com 1.10,2013-07-03 21:23:00,
2013-07-03 16:38:00,84.1,53.0,29.97,South,183,3.0,3.0,34,0.00,,,0.00,weatherlink.com 1.10,2013-07-03 21:38:00,
2013-07-03 16:53:00,84.0,54.0,29.97,SSW,205,0.0,4.0,35,0.00,,,0.00,weatherlink.com 1.10,2013-07-03 21:53:00,
2013-07-03 17:08:00,83.5,53.0,29.96,SSE,165,0.0,3.0,35,0.00,,,0.00,weatherlink.com 1.10,2013-07-03 22:08:00,
2013-07-03 17:23:00,84.7,54.0,29.95,South,180,2.0,4.0,35,0.00,,,0.00,weatherlink.com 1.10,2013-07-03 22:23:00,
2013-07-03 17:38:00,85.0,53.0,29.95,SSE,152,0.0,4.0,33,0.00,,,0.00,weatherlink.com 1.10,2013-07-03 22:38:00,
2013-07-03 18:38:00,85.1,53.0,29.93,SSE,168,2.0,4.0,33,0.00,,,0.00,weatherlink.com 1.10,2013-07-03 23:38:00,
2013-07-03 18:53:00,84.2,54.0,29.93,ESE,118,0.0,4.0,35,0.00,,,0.00,weatherlink.com 1.10,2013-07-03 23:53:00,
2013-07-03 19:08:00,83.6,52.0,29.93,SSE,156,2.0,4.0,34,0.00,,,0.00,weatherlink.com 1.10,2013-07-04 00:08:00,
2013-07-03 19:23:00,83.2,53.0,29.93,SE,146,2.0,5.0,35,0.00,,,0.00,weatherlink.com 1.10,2013-07-04 00:23:00,
2013-07-03 19:38:00,83.0,53.0,29.93,SSE,166,1.0,5.0,36,0.00,,,0.00,weatherlink.com 1.10,2013-07-04 00:38:00,
2013-07-03 19:53:00,82.3,53.0,29.92,SSE,159,0.0,3.0,36,0.00,,,0.00,weatherlink.com 1.10,2013-07-04 00:53:00,
2013-07-03 20:08:00,82.0,54.0,29.92,SSE,165,0.0,4.0,38,0.00,,,0.00,weatherlink.com 1.10,2013-07-04 01:08:00,
2013-07-03 20:23:00,81.6,54.0,29.92,South,176,1.0,2.0,38,0.00,,,0.00,weatherlink.com 1.10,2013-07-04 01:23:00,
2013-07-03 20:39:00,81.4,53.0,29.92,SSE,152,0.0,2.0,38,0.00,,,0.00,weatherlink.com 1.10,2013-07-04 01:39:00,
2013-07-03 21:24:00,77.5,54.0,29.92,South,190,0.0,2.0,45,0.00,,,0.00,weatherlink.com 1.10,2013-07-04 02:24:00,
2013-07-03 21:39:00,76.7,54.0,29.92,South,172,2.0,2.0,46,0.00,,,0.00,weatherlink.com 1.10,2013-07-04 02:39:00,
2013-07-03 22:09:00,75.2,54.0,29.92,South,187,0.0,2.0,48,0.00,,,0.00,weatherlink.com 1.10,2013-07-04 03:09:00,
2013-07-03 22:24:00,74.4,54.0,29.92,SSE,163,1.0,1.0,49,0.00,,,0.00,weatherlink.com 1.10,2013-07-04 03:24:00,
2013-07-03 22:39:00,74.2,54.0,29.92,ESE,114,1.0,1.0,50,0.00,,,0.00,weatherlink.com 1.10,2013-07-04 03:39:00,
2013-07-03 23:09:00,72.8,54.0,29.92,SSE,165,0.0,2.0,52,0.00,,,0.00,weatherlink.com 1.10,2013-07-04 04:09:00,
2013-07-03 23:24:00,72.3,54.0,29.92,SE,128,0.0,1.0,53,0.00,,,0.00,weatherlink.com 1.10,2013-07-04 04:24:00,
2013-07-03 23:39:00,72.4,54.0,29.92,SSW,212,0.0,4.0,52,0.00,,,0.00,weatherlink.com 1.10,2013-07-04 04:39:00,
2013-07-03 23:54:00,73.0,53.0,29.91,SE,135,0.0,3.0,50,0.00,,,0.00,weatherlink.com 1.10,2013-07-04 04:54:00,